Time;durP1;ratioP1;P1;durP2;ratioP2;P2;SDS_P1;SDS_P2;PMS_P1;PMS_P2;Temp;Humidity;BMP_temperature;BMP_pressure;BME280_temperature;BME280_humidity;BME280_pressure;Samples;Min_cycle;Max_cycle;Signal;HPM_P1;HPM_P2
2023/08/01 00:02:11;;;;;;;18.65;9.63;;;19.20;94.30;;;;;;5070032;28;20104;-80
2023/08/01 00:04:37;;;;;;;22.85;9.95;;;19.10;94.30;;;;;;5073591;28;20354;-79
2023/08/01 00:07:03;;;;;;;18.05;8.93;;;19.10;94.40;;;;;;5056526;28;20021;-78
2023/08/01 00:09:29;;;;;;;13.75;9.68;;;19.10;93.90;;;;;;5081778;28;20091;-79
2023/08/01 00:11:55;;;;;;;13.32;8.65;;;19.10;93.80;;;;;;5075007;28;20111;-78
2023/08/01 00:14:24;;;;;;;14.07;8.77;;;19.20;93.60;;;;;;5074779;28;20078;-79
2023/08/01 00:16:50;;;;;;;16.25;10.30;;;19.20;93.40;;;;;;5043134;28;20032;-78
2023/08/01 00:19:16;;;;;;;21.13;9.80;;;19.20;93.90;;;;;;5055863;28;20087;-80
2023/08/01 00:21:42;;;;;;;15.68;9.80;;;19.10;94.00;;;;;;5054565;28;20045;-78
2023/08/01 00:24:08;;;;;;;15.38;9.38;;;19.10;93.70;;;;;;5074310;28;20021;-79
2023/08/01 00:26:34;;;;;;;19.90;9.93;;;19.10;93.80;;;;;;5073617;28;20025;-78
2023/08/01 00:29:00;;;;;;;15.25;8.60;;;19.10;94.10;;;;;;5067253;28;20024;-78
2023/08/01 00:31:26;;;;;;;13.63;9.57;;;19.10;94.30;;;;;;5073593;28;20028;-78
2023/08/01 00:33:52;;;;;;;15.70;9.82;;;19.10;94.40;;;;;;5051627;28;20127;-79
2023/08/01 00:36:18;;;;;;;12.30;8.73;;;19.00;94.50;;;;;;5046979;28;20476;-79
2023/08/01 00:38:44;;;;;;;11.90;8.10;;;19.00;94.10;;;;;;5070993;28;20041;-79
2023/08/01 00:41:10;;;;;;;11.25;8.25;;;19.00;93.70;;;;;;5073455;28;20386;-79
2023/08/01 00:43:36;;;;;;;12.95;8.65;;;19.10;93.50;;;;;;5074243;28;20086;-79
2023/08/01 00:46:05;;;;;;;15.00;9.23;;;19.10;94.00;;;;;;5074900;28;20016;-78
2023/08/01 00:48:31;;;;;;;19.23;8.93;;;19.10;94.20;;;;;;5074064;28;20028;-78
2023/08/01 00:51:04;;;;;;;19.25;9.52;;;19.10;94.40;;;;;;5074564;28;20462;-78
2023/08/01 00:53:30;;;;;;;15.60;9.50;;;19.00;94.40;;;;;;5073652;28;20064;-79
2023/08/01 00:55:58;;;;;;;16.35;8.70;;;18.90;94.80;;;;;;5075713;28;20016;-78
2023/08/01 00:58:24;;;;;;;20.13;9.77;;;18.90;94.70;;;;;;5057663;28;20079;-78
2023/08/01 01:00:50;;;;;;;17.42;9.85;;;18.90;94.80;;;;;;5079229;28;20036;-79
2023/08/01 01:03:17;;;;;;;14.07;9.13;;;18.90;94.90;;;;;;5054705;28;20406;-80
2023/08/01 01:06:17;;;;;;;17.75;9.73;;;18.80;95.00;;;;;;5072439;28;20025;-79
2023/08/01 01:08:43;;;;;;;14.90;8.90;;;18.80;95.00;;;;;;5051826;28;20044;-79
2023/08/01 01:11:09;;;;;;;16.38;8.63;;;18.80;95.10;;;;;;5080097;28;20048;-80
2023/08/01 01:13:35;;;;;;;13.30;9.50;;;18.70;95.20;;;;;;5070965;28;20432;-79
2023/08/01 01:16:01;;;;;;;16.60;8.82;;;18.70;95.20;;;;;;5057541;28;20382;-79
2023/08/01 01:18:27;;;;;;;14.73;9.73;;;18.70;95.30;;;;;;5076540;28;20035;-78
2023/08/01 01:20:53;;;;;;;15.48;9.65;;;18.70;95.40;;;;;;5051498;28;20021;-79
2023/08/01 01:23:20;;;;;;;13.65;9.15;;;18.70;95.50;;;;;;5067307;28;20020;-79
2023/08/01 01:25:47;;;;;;;10.75;9.55;;;18.70;95.70;;;;;;5052656;28;20025;-79
2023/08/01 01:28:14;;;;;;;15.27;8.63;;;18.70;95.80;;;;;;5055429;28;20036;-78
2023/08/01 01:30:42;;;;;;;13.98;9.02;;;18.70;95.90;;;;;;5051520;28;20142;-80
2023/08/01 01:33:09;;;;;;;;;;;18.60;95.80;;;;;;5065780;28;20032;-79
2023/08/01 01:35:35;;;;;;;12.63;8.75;;;18.60;95.40;;;;;;5073436;28;19914;-78
2023/08/01 01:38:03;;;;;;;16.95;9.75;;;18.60;95.70;;;;;;5051897;28;20136;-79
2023/08/01 01:40:33;;;;;;;10.18;8.52;;;18.50;96.10;;;;;;5068696;28;20017;-79
2023/08/01 01:42:59;;;;;;;18.85;9.73;;;18.50;96.20;;;;;;5072436;28;20024;-78
2023/08/01 01:45:26;;;;;;;12.10;9.77;;;18.50;96.30;;;;;;5072258;28;20043;-79
2023/08/01 01:47:52;;;;;;;18.40;10.10;;;18.50;96.30;;;;;;5072674;28;20103;-79
2023/08/01 01:50:18;;;;;;;14.93;10.45;;;18.50;96.40;;;;;;5072212;28;20024;-78
2023/08/01 01:52:45;;;;;;;18.25;10.70;;;18.50;96.60;;;;;;5071755;28;20028;-79
2023/08/01 01:55:11;;;;;;;18.77;10.53;;;18.50;96.80;;;;;;5072270;28;20024;-78
2023/08/01 01:57:37;;;;;;;18.13;9.82;;;18.60;96.70;;;;;;5071881;28;20035;-78
2023/08/01 02:00:04;;;;;;;18.45;10.38;;;18.60;96.80;;;;;;5051053;28;20039;-79
2023/08/01 02:02:30;;;;;;;19.65;10.77;;;18.60;96.90;;;;;;5052768;28;20094;-79
2023/08/01 02:04:56;;;;;;;20.15;9.93;;;18.60;96.90;;;;;;5049973;28;20116;-79
2023/08/01 02:07:22;;;;;;;19.88;10.95;;;18.60;97.00;;;;;;5065311;28;20035;-79
2023/08/01 02:09:48;;;;;;;20.08;11.43;;;18.60;97.10;;;;;;5071418;28;20045;-79
2023/08/01 02:12:14;;;;;;;27.65;10.52;;;18.60;97.20;;;;;;5050600;28;20517;-80
2023/08/01 02:14:41;;;;;;;22.52;12.15;;;18.70;97.20;;;;;;5052026;28;20040;-78
2023/08/01 02:17:07;;;;;;;22.93;11.63;;;18.70;97.30;;;;;;5071816;28;20020;-79
2023/08/01 02:19:33;;;;;;;19.35;11.52;;;18.70;97.40;;;;;;5051501;28;20346;-79
2023/08/01 02:21:59;;;;;;;26.27;13.07;;;18.70;97.50;;;;;;5052417;28;20017;-79
2023/08/01 02:24:25;;;;;;;23.92;12.30;;;18.70;97.70;;;;;;5066543;28;20482;-80
2023/08/01 02:26:52;;;;;;;17.23;11.38;;;18.80;97.70;;;;;;5054935;28;20028;-79
2023/08/01 02:29:18;;;;;;;17.63;11.80;;;18.80;97.80;;;;;;5075975;28;20025;-79
2023/08/01 02:31:44;;;;;;;27.67;12.77;;;18.80;97.80;;;;;;5077938;28;20028;-79
2023/08/01 02:34:09;;;;;;;27.88;12.70;;;18.80;97.80;;;;;;5050991;28;20382;-79
2023/08/01 02:36:35;;;;;;;29.15;13.30;;;18.90;97.80;;;;;;5050181;28;20067;-78
2023/08/01 02:39:01;;;;;;;25.17;12.73;;;18.90;97.80;;;;;;5071428;28;20101;-79
2023/08/01 02:41:27;;;;;;;32.40;14.32;;;19.00;97.80;;;;;;5071524;28;20092;-79
2023/08/01 02:43:53;;;;;;;30.60;14.00;;;19.00;97.70;;;;;;5071259;28;20021;-78
2023/08/01 02:46:19;;;;;;;27.08;12.15;;;19.10;97.70;;;;;;5050271;28;20026;-79
2023/08/01 02:48:46;;;;;;;24.80;12.93;;;19.20;97.60;;;;;;5053877;28;20020;-80
2023/08/01 02:51:12;;;;;;;24.80;13.70;;;19.20;97.50;;;;;;5046298;28;20021;-81
2023/08/01 02:53:40;;;;;;;23.67;13.15;;;19.40;97.40;;;;;;5069774;28;20524;-78
2023/08/01 02:56:08;;;;;;;22.08;13.55;;;19.50;97.00;;;;;;5063515;28;20056;-78
2023/08/01 02:58:34;;;;;;;23.98;12.55;;;19.60;96.80;;;;;;5067689;28;20116;-79
2023/08/01 03:01:01;;;;;;;35.20;14.68;;;19.70;96.70;;;;;;5064060;28;20458;-79
2023/08/01 03:03:27;;;;;;;20.67;12.88;;;19.80;96.60;;;;;;5055202;28;20021;-79
2023/08/01 03:05:53;;;;;;;34.85;15.88;;;19.90;96.40;;;;;;5059152;28;20031;-78
2023/08/01 03:08:19;;;;;;;33.78;15.68;;;20.00;96.20;;;;;;5054043;28;20127;-79
2023/08/01 03:10:45;;;;;;;36.78;16.77;;;20.00;96.00;;;;;;5071605;28;20075;-80
2023/08/01 03:13:11;;;;;;;34.90;16.10;;;20.00;95.90;;;;;;5070985;28;20028;-79
2023/08/01 03:15:37;;;;;;;28.58;15.32;;;20.10;96.10;;;;;;5067534;28;20466;-79
2023/08/01 03:18:03;;;;;;;38.97;16.20;;;20.10;95.70;;;;;;5072001;28;20064;-80
2023/08/01 03:20:29;;;;;;;32.58;16.77;;;20.20;95.60;;;;;;5072812;28;20017;-79
2023/08/01 03:22:55;;;;;;;36.13;17.30;;;20.20;95.40;;;;;;5073399;28;20130;-81
2023/08/01 03:25:21;;;;;;;29.85;16.65;;;20.20;95.30;;;;;;5074363;28;20492;-80
2023/08/01 03:27:47;;;;;;;33.55;15.77;;;20.30;95.30;;;;;;5075433;28;20034;-80
2023/08/01 03:30:13;;;;;;;34.00;15.70;;;20.40;95.20;;;;;;5075147;28;20050;-80
2023/08/01 03:32:40;;;;;;;37.83;16.88;;;20.40;95.00;;;;;;5075351;28;20028;-79
2023/08/01 03:35:06;;;;;;;27.67;15.68;;;20.50;94.80;;;;;;5074747;28;20108;-79
2023/08/01 03:37:33;;;;;;;35.70;17.03;;;20.60;94.80;;;;;;5074628;28;20021;-81
2023/08/01 03:39:58;;;;;;;34.85;16.38;;;20.70;94.60;;;;;;5074678;28;20689;-80
2023/08/01 03:42:24;;;;;;;36.10;15.43;;;20.80;94.30;;;;;;5053313;28;20025;-80
2023/08/01 03:44:50;;;;;;;37.20;16.40;;;21.00;94.10;;;;;;5071401;28;20036;-80
2023/08/01 03:47:16;;;;;;;26.10;15.95;;;21.00;93.90;;;;;;5053454;28;20029;-79
2023/08/01 03:49:42;;;;;;;38.70;16.08;;;21.20;94.00;;;;;;5070336;28;20024;-80
2023/08/01 03:52:08;;;;;;;29.80;15.15;;;21.20;93.50;;;;;;5056411;28;20017;-80
2023/08/01 03:54:34;;;;;;;27.42;14.27;;;21.30;93.40;;;;;;5081728;28;20021;-80
2023/08/01 03:57:00;;;;;;;32.53;17.07;;;21.40;93.20;;;;;;5056163;28;20032;-81
2023/08/01 03:59:26;;;;;;;31.40;14.30;;;21.50;93.10;;;;;;5052859;28;20032;-80
2023/08/01 04:01:52;;;;;;;30.70;14.15;;;21.60;92.60;;;;;;5074160;28;20021;-79
2023/08/01 04:04:20;;;;;;;25.10;13.35;;;21.70;92.50;;;;;;5074367;28;20028;-80
2023/08/01 04:06:45;;;;;;;31.48;14.85;;;21.70;92.20;;;;;;5074895;28;20024;-79
2023/08/01 04:09:11;;;;;;;27.48;15.45;;;21.80;92.20;;;;;;5074212;28;20489;-77
2023/08/01 04:11:37;;;;;;;24.67;14.45;;;21.90;92.10;;;;;;5042165;28;20044;-80
2023/08/01 04:14:03;;;;;;;25.52;14.98;;;22.00;91.80;;;;;;5072833;28;20036;-81
2023/08/01 04:16:29;;;;;;;29.45;15.55;;;22.10;91.70;;;;;;5071592;28;20363;-79
2023/08/01 04:18:55;;;;;;;24.92;14.20;;;22.10;91.60;;;;;;5074296;28;20041;-79
2023/08/01 04:21:21;;;;;;;31.90;15.25;;;22.30;91.40;;;;;;5073861;28;20398;-81
2023/08/01 04:23:47;;;;;;;23.40;15.25;;;22.40;91.20;;;;;;5057057;28;20070;-80
2023/08/01 04:26:13;;;;;;;27.33;14.35;;;22.40;91.00;;;;;;5075342;28;20476;-80
2023/08/01 04:28:39;;;;;;;24.15;13.27;;;22.50;90.50;;;;;;5074328;28;20020;-81
2023/08/01 04:31:05;;;;;;;22.50;11.68;;;22.50;90.00;;;;;;5052558;28;20033;-80
2023/08/01 04:33:31;;;;;;;23.80;11.70;;;22.60;89.10;;;;;;5069513;28;20056;-79
2023/08/01 04:35:57;;;;;;;21.33;10.88;;;22.60;88.40;;;;;;5076267;28;20027;-81
2023/08/01 04:38:23;;;;;;;19.52;10.25;;;22.70;87.70;;;;;;5056070;28;20029;-81
2023/08/01 04:40:49;;;;;;;17.70;10.48;;;22.80;87.30;;;;;;5052371;28;20051;-82
2023/08/01 04:43:15;;;;;;;22.90;11.38;;;22.80;87.20;;;;;;5055453;28;20379;-80
2023/08/01 04:45:40;;;;;;;17.48;11.18;;;22.90;86.70;;;;;;5052332;28;20028;-80
2023/08/01 04:48:06;;;;;;;16.48;11.07;;;23.00;86.60;;;;;;5067744;28;20028;-79
2023/08/01 04:50:32;;;;;;;21.17;11.30;;;23.10;86.00;;;;;;5076514;28;20024;-79
2023/08/01 04:52:58;;;;;;;20.75;11.70;;;23.10;85.40;;;;;;5046746;28;20100;-79
2023/08/01 04:55:24;;;;;;;16.08;11.10;;;23.20;85.80;;;;;;5079044;28;20020;-80
2023/08/01 04:57:50;;;;;;;20.83;11.82;;;23.30;85.00;;;;;;5074093;28;20508;-80
2023/08/01 05:00:17;;;;;;;27.90;11.63;;;23.40;85.10;;;;;;5057712;28;20490;-80
2023/08/01 05:02:43;;;;;;;;;;;23.70;84.20;;;;;;5075381;28;20020;-79
2023/08/01 05:05:09;;;;;;;15.35;9.85;;;24.20;83.70;;;;;;5077145;28;20250;-80
2023/08/01 05:07:34;;;;;;;18.08;10.18;;;24.90;79.70;;;;;;5079810;28;20017;-79
2023/08/01 05:10:00;;;;;;;24.88;12.63;;;25.70;77.10;;;;;;5057093;28;20040;-80
2023/08/01 05:12:26;;;;;;;22.05;12.73;;;26.70;75.20;;;;;;5053371;28;20028;-79
2023/08/01 05:14:52;;;;;;;19.20;10.70;;;27.50;72.40;;;;;;5066533;28;20021;-81
2023/08/01 05:17:18;;;;;;;16.75;10.82;;;28.20;69.10;;;;;;5083050;28;20028;-80
2023/08/01 05:19:44;;;;;;;26.25;12.65;;;29.00;66.40;;;;;;5055150;28;20173;-80
2023/08/01 05:22:09;;;;;;;22.90;12.02;;;29.70;64.10;;;;;;5044925;28;20024;-80
2023/08/01 05:24:35;;;;;;;23.83;12.32;;;29.90;62.40;;;;;;5073821;28;20059;-80
2023/08/01 05:27:01;;;;;;;22.70;10.80;;;30.40;61.40;;;;;;5040474;28;20421;-81
2023/08/01 05:29:27;;;;;;;18.35;8.70;;;31.00;61.00;;;;;;5065627;28;20401;-81
2023/08/01 05:31:53;;;;;;;15.32;8.25;;;31.60;56.70;;;;;;5086532;28;20032;-82
2023/08/01 05:34:19;;;;;;;14.93;8.27;;;31.70;55.80;;;;;;5056306;28;20115;-80
2023/08/01 05:36:45;;;;;;;10.23;7.70;;;32.10;55.80;;;;;;5055423;28;20390;-80
2023/08/01 05:39:11;;;;;;;12.03;6.67;;;32.00;53.30;;;;;;5073239;28;20398;-80
2023/08/01 05:41:37;;;;;;;14.17;6.77;;;32.20;53.20;;;;;;5072545;28;20028;-81
2023/08/01 05:44:04;;;;;;;14.60;7.23;;;32.40;51.50;;;;;;5072853;28;20025;-81
2023/08/01 05:46:30;;;;;;;12.02;5.55;;;32.30;51.40;;;;;;5055355;28;20104;-80
2023/08/01 05:48:56;;;;;;;10.53;5.70;;;32.80;50.70;;;;;;5073411;28;20036;-82
2023/08/01 05:51:21;;;;;;;7.73;5.00;;;33.60;50.50;;;;;;5064571;28;20432;-79
2023/08/01 05:53:47;;;;;;;24.17;7.03;;;34.40;48.20;;;;;;5068090;28;20160;-80
2023/08/01 05:56:14;;;;;;;13.83;6.80;;;34.80;48.00;;;;;;5063327;28;20509;-80
2023/08/01 05:58:40;;;;;;;11.98;6.80;;;35.40;47.00;;;;;;5051447;28;20444;-80
2023/08/01 06:01:06;;;;;;;12.43;6.17;;;35.50;45.60;;;;;;5050764;28;20112;-81
2023/08/01 06:03:32;;;;;;;15.50;5.85;;;35.50;46.40;;;;;;5064381;28;20021;-79
2023/08/01 06:05:57;;;;;;;8.80;4.87;;;36.10;45.50;;;;;;5072898;28;20435;-80
2023/08/01 06:08:23;;;;;;;6.35;5.45;;;36.50;45.60;;;;;;5072565;28;20028;-79
2023/08/01 06:10:49;;;;;;;9.00;5.23;;;37.00;43.90;;;;;;5053810;28;20048;-81
2023/08/01 06:13:15;;;;;;;13.13;7.28;;;37.60;43.90;;;;;;5071777;28;20028;-81
2023/08/01 06:15:41;;;;;;;13.85;6.80;;;38.10;42.90;;;;;;5082368;28;20036;-81
2023/08/01 06:18:07;;;;;;;17.10;7.88;;;37.80;42.90;;;;;;5079715;28;20036;-81
2023/08/01 06:20:33;;;;;;;16.40;7.38;;;37.20;43.10;;;;;;5079297;28;20040;-81
2023/08/01 06:22:59;;;;;;;13.50;6.15;;;36.70;43.80;;;;;;5052294;28;20490;-84
2023/08/01 06:25:25;;;;;;;12.25;6.57;;;36.70;43.40;;;;;;5045949;28;20120;-81
2023/08/01 06:27:51;;;;;;;11.05;6.97;;;37.20;43.90;;;;;;5072750;28;20043;-81
2023/08/01 06:30:17;;;;;;;11.13;6.70;;;37.70;43.00;;;;;;5051757;28;20029;-83
2023/08/01 06:32:43;;;;;;;11.10;6.13;;;38.30;41.90;;;;;;5042868;28;20052;-83
2023/08/01 06:35:09;;;;;;;10.30;5.35;;;38.70;42.20;;;;;;5030783;28;20064;-85
2023/08/01 06:37:35;;;;;;;8.30;4.70;;;39.40;41.10;;;;;;5051112;28;20040;-85
2023/08/01 06:40:02;;;;;;;7.70;4.85;;;;;;;;;;5048521;28;20044;-85
2023/08/01 06:42:28;;;;;;;10.18;4.35;;;40.60;39.60;;;;;;5054819;28;20021;-85
2023/08/01 06:44:54;;;;;;;9.52;4.43;;;42.60;37.40;;;;;;5053705;28;20067;-84
2023/08/01 06:47:20;;;;;;;9.15;4.10;;;43.00;37.20;;;;;;5054294;28;20021;-85
2023/08/01 06:49:46;;;;;;;;;;;43.40;36.20;;;;;;5053113;28;20139;-84
2023/08/01 06:52:11;;;;;;;2.25;2.05;;;43.90;38.00;;;;;;5026316;28;19904;-85
2023/08/01 06:54:37;;;;;;;;;;;42.80;33.60;;;;;;5052305;28;20097;-83
2023/08/01 06:57:04;;;;;;;7.97;2.88;;;40.70;35.80;;;;;;5052310;28;19909;-84
2023/08/01 06:59:30;;;;;;;4.10;2.95;;;39.70;37.10;;;;;;5039889;28;20035;-85
2023/08/01 07:01:56;;;;;;;;;;;39.90;37.30;;;;;;5056873;28;20029;-85
2023/08/01 07:04:23;;;;;;;8.10;3.40;;;40.60;38.50;;;;;;5051241;28;19960;-85
2023/08/01 07:06:49;;;;;;;4.93;3.38;;;41.80;36.90;;;;;;5042407;28;20021;-86
2023/08/01 07:09:15;;;;;;;;;;;43.40;35.40;;;;;;5066388;28;20048;-85
2023/08/01 07:11:41;;;;;;;6.03;3.58;;;43.70;35.50;;;;;;5068593;28;19920;-84
2023/08/01 07:14:06;;;;;;;4.82;3.40;;;41.90;34.70;;;;;;5083081;28;20021;-83
2023/08/01 07:16:32;;;;;;;8.07;3.78;;;39.50;36.80;;;;;;5081462;28;20032;-84
2023/08/01 07:19:00;;;;;;;8.25;3.72;;;39.10;38.30;;;;;;5071231;28;20029;-86
2023/08/01 07:21:27;;;;;;;10.98;4.40;;;39.80;37.70;;;;;;5080495;28;20035;-85
2023/08/01 07:23:52;;;;;;;4.68;3.35;;;39.20;37.80;;;;;;5066620;28;20065;-85
2023/08/01 07:26:18;;;;;;;4.22;3.65;;;38.20;38.40;;;;;;5066157;28;20025;-84
2023/08/01 07:28:44;;;;;;;13.13;4.75;;;38.40;38.90;;;;;;5066034;28;20024;-86
2023/08/01 07:31:10;;;;;;;4.93;3.67;;;39.00;38.60;;;;;;5084943;28;20040;-84
2023/08/01 07:33:36;;;;;;;4.10;3.67;;;40.00;37.80;;;;;;5084402;28;20025;-85
2023/08/01 07:36:02;;;;;;;;;;;41.00;37.00;;;;;;5084389;28;20047;-86
2023/08/01 07:38:28;;;;;;;8.00;3.67;;;41.70;37.30;;;;;;5069100;28;19913;-85
2023/08/01 07:40:55;;;;;;;5.80;3.30;;;42.30;35.60;;;;;;5082199;28;20049;-85
2023/08/01 07:43:21;;;;;;;9.48;3.10;;;42.90;35.30;;;;;;5081183;28;20036;-86
2023/08/01 07:45:50;;;;;;;;;;;43.00;34.90;;;;;;5073890;28;20021;-85
2023/08/01 07:48:16;;;;;;;5.53;3.20;;;43.10;35.80;;;;;;5070143;28;19919;-85
2023/08/01 07:50:42;;;;;;;4.03;3.35;;;43.60;34.70;;;;;;5078122;28;20359;-85
2023/08/01 07:53:08;;;;;;;4.40;3.47;;;44.60;33.90;;;;;;5077257;28;20028;-85
2023/08/01 07:55:34;;;;;;;7.18;3.75;;;44.80;34.30;;;;;;5076975;28;20085;-86
2023/08/01 07:58:00;;;;;;;5.70;3.60;;;45.30;33.10;;;;;;5075366;28;20059;-90
2023/08/01 08:00:26;;;;;;;5.68;3.28;;;46.00;33.00;;;;;;5058593;28;20078;-88
2023/08/01 08:02:53;;;;;;;6.53;2.92;;;46.60;32.30;;;;;;5058247;28;20028;-86
2023/08/01 08:05:19;;;;;;;5.50;3.38;;;;;;;;;;5059368;28;20465;-88
2023/08/01 08:07:46;;;;;;;4.28;2.60;;;;;;;;;;5078657;28;20158;-85
2023/08/01 08:10:12;;;;;;;8.90;4.97;;;;;;;;;;5058211;28;20532;-86
2023/08/01 08:12:38;;;;;;;8.30;3.28;;;48.70;30.40;;;;;;5075211;28;20074;-87
2023/08/01 08:15:04;;;;;;;7.70;3.00;;;48.80;30.50;;;;;;5063936;28;20120;-84
2023/08/01 08:17:30;;;;;;;5.53;2.97;;;47.80;30.20;;;;;;5075718;28;20029;-86
2023/08/01 08:19:56;;;;;;;9.65;4.47;;;45.60;31.00;;;;;;5065218;28;20036;-84
2023/08/01 08:22:21;;;;;;;;;;;43.40;33.10;;;;;;5061403;28;20074;-86
2023/08/01 08:24:48;;;;;;;7.95;4.18;;;43.00;34.70;;;;;;5058451;28;19958;-85
2023/08/01 08:27:14;;;;;;;7.45;3.42;;;43.50;34.20;;;;;;5057578;28;20052;-85
2023/08/01 08:29:40;;;;;;;6.82;3.72;;;44.50;33.60;;;;;;5058579;28;20055;-86
2023/08/01 08:32:07;;;;;;;5.22;3.20;;;45.40;33.00;;;;;;5075901;28;20035;-85
2023/08/01 08:34:33;;;;;;;10.15;4.82;;;45.90;32.20;;;;;;5074954;28;20024;-87
2023/08/01 08:36:59;;;;;;;7.95;4.03;;;46.00;32.00;;;;;;5043120;28;20029;-86
2023/08/01 08:39:25;;;;;;;4.97;3.20;;;46.40;31.80;;;;;;5075125;28;20033;-85
2023/08/01 08:41:52;;;;;;;9.13;3.38;;;46.10;31.40;;;;;;5076950;28;20042;-87
2023/08/01 08:44:24;;;;;;;4.68;3.63;;;45.10;32.10;;;;;;5056654;28;20044;-84
2023/08/01 08:46:52;;;;;;;10.30;3.70;;;44.70;32.80;;;;;;5056732;28;20035;-84
2023/08/01 08:49:24;;;;;;;5.95;3.78;;;43.90;33.10;;;;;;5074379;28;20021;-85
2023/08/01 08:51:50;;;;;;;4.97;4.10;;;41.60;33.50;;;;;;5074737;28;20113;-87
2023/08/01 08:54:16;;;;;;;6.78;3.97;;;39.20;35.60;;;;;;5075036;28;20024;-87
2023/08/01 08:56:43;;;;;;;5.65;3.85;;;38.00;37.70;;;;;;5076316;28;20060;-87
2023/08/01 08:59:11;;;;;;;;;;;39.10;38.60;;;;;;5059239;28;20028;-84
2023/08/01 09:01:38;;;;;;;5.75;3.05;;;41.00;37.30;;;;;;5087183;28;20420;-85
2023/08/01 09:04:05;;;;;;;4.70;3.10;;;43.00;34.30;;;;;;5057239;28;20031;-88
2023/08/01 09:06:35;;;;;;;7.38;3.10;;;44.60;33.40;;;;;;5060369;28;20083;-85
2023/08/01 09:09:10;;;;;;;3.88;2.97;;;44.10;32.30;;;;;;5048056;28;20044;-86
2023/08/01 09:11:45;;;;;;;;;;;43.40;32.50;;;;;;5059304;28;20053;-84
2023/08/01 09:14:12;;;;;;;7.72;3.30;;;41.40;34.00;;;;;;5075484;28;19915;-86
2023/08/01 09:16:39;;;;;;;5.07;3.30;;;40.90;35.20;;;;;;5080888;28;20027;-84
2023/08/01 09:19:07;;;;;;;6.47;3.10;;;39.80;35.70;;;;;;5069761;28;20039;-86
2023/08/01 09:21:34;;;;;;;4.97;2.97;;;39.80;36.60;;;;;;5065558;28;20430;-87
2023/08/01 09:24:18;;;;;;;4.43;3.35;;;40.70;35.30;;;;;;5057233;28;20024;-85
2023/08/01 09:26:46;;;;;;;4.25;3.08;;;40.10;35.20;;;;;;5056465;28;20021;-85
2023/08/01 09:29:12;;;;;;;6.30;3.03;;;38.70;36.50;;;;;;5073437;28;20024;-86
2023/08/01 09:31:42;;;;;;;6.07;3.25;;;37.90;37.30;;;;;;5055519;28;20436;-86
2023/08/01 09:34:22;;;;;;;4.18;3.42;;;37.30;37.50;;;;;;5056107;28;20079;-85
2023/08/01 09:36:48;;;;;;;4.35;3.20;;;36.40;38.60;;;;;;5072370;28;20021;-86
2023/08/01 09:39:19;;;;;;;7.93;3.85;;;35.90;40.20;;;;;;5074181;28;20032;-85
2023/08/01 09:41:45;;;;;;;11.82;5.00;;;35.20;40.40;;;;;;5059299;28;20055;-85
2023/08/01 09:44:12;;;;;;;9.68;4.38;;;33.90;42.30;;;;;;5074048;28;20024;-86
2023/08/01 09:46:38;;;;;;;10.30;5.05;;;33.40;43.30;;;;;;5075390;28;20078;-87
2023/08/01 09:49:09;;;;;;;7.47;4.20;;;32.60;45.30;;;;;;5074880;28;20095;-86
2023/08/01 09:51:47;;;;;;;8.02;4.47;;;32.30;45.10;;;;;;5064495;28;20094;-85
2023/08/01 09:54:13;;;;;;;6.50;4.53;;;31.90;46.20;;;;;;5072686;28;20023;-85
2023/08/01 09:56:43;;;;;;;6.63;4.10;;;32.00;46.50;;;;;;5052657;28;20021;-87
2023/08/01 09:59:10;;;;;;;17.00;4.78;;;33.00;46.60;;;;;;5055795;28;20411;-86
2023/08/01 10:01:39;;;;;;;7.10;4.18;;;35.00;43.30;;;;;;5073676;28;20016;-86
2023/08/01 10:04:07;;;;;;;6.13;4.35;;;35.60;42.40;;;;;;5074926;28;20025;-86
2023/08/01 10:06:36;;;;;;;9.27;4.10;;;35.80;41.60;;;;;;5057560;28;20115;-86
2023/08/01 10:09:02;;;;;;;7.20;4.47;;;36.30;41.20;;;;;;5056590;28;20031;-85
2023/08/01 10:11:34;;;;;;;7.75;3.80;;;37.40;40.70;;;;;;5096171;28;20064;-87
2023/08/01 10:14:02;;;;;;;9.38;3.60;;;39.10;39.20;;;;;;5062786;28;20116;-87
2023/08/01 10:16:29;;;;;;;5.53;3.65;;;40.70;36.60;;;;;;5077802;28;20036;-86
2023/08/01 10:18:56;;;;;;;6.78;3.83;;;41.50;35.30;;;;;;5075628;28;20044;-85
2023/08/01 10:21:23;;;;;;;7.22;3.50;;;41.40;35.20;;;;;;5075256;28;20375;-87
2023/08/01 10:23:49;;;;;;;8.30;4.70;;;41.70;35.10;;;;;;5079541;28;20037;-85
2023/08/01 10:26:16;;;;;;;9.35;4.18;;;42.20;35.70;;;;;;5064517;28;20027;-85
2023/08/01 10:28:51;;;;;;;7.43;5.05;;;41.50;35.00;;;;;;5079187;28;20029;-84
2023/08/01 10:31:19;;;;;;;10.27;4.32;;;40.20;36.40;;;;;;5075822;28;20019;-87
2023/08/01 10:33:49;;;;;;;10.32;4.32;;;39.60;36.70;;;;;;5074608;28;20024;-86
2023/08/01 10:36:20;;;;;;;8.38;3.92;;;39.00;37.10;;;;;;5076328;28;20025;-85
2023/08/01 10:38:55;;;;;;;9.65;4.35;;;37.70;37.90;;;;;;5079447;28;20058;-86
2023/08/01 10:41:22;;;;;;;12.40;5.20;;;;;;;;;;5057534;28;20448;-86
2023/08/01 10:43:48;;;;;;;7.70;4.28;;;36.00;39.60;;;;;;5074932;28;20029;-85
2023/08/01 10:46:14;;;;;;;7.55;4.78;;;33.80;43.10;;;;;;5056767;28;20025;-84
2023/08/01 10:48:53;;;;;;;11.02;4.85;;;32.70;44.20;;;;;;5059049;28;20033;-86
2023/08/01 10:51:19;;;;;;;7.80;4.60;;;31.70;45.60;;;;;;5078052;28;20385;-87
2023/08/01 10:53:46;;;;;;;8.20;4.55;;;31.30;47.50;;;;;;5077860;28;20024;-86
2023/08/01 10:56:17;;;;;;;5.78;4.43;;;31.20;46.90;;;;;;5083610;28;20020;-86
2023/08/01 10:58:43;;;;;;;6.50;4.45;;;31.10;46.70;;;;;;5060492;28;20037;-86
2023/08/01 11:01:10;;;;;;;10.48;5.03;;;;;;;;;;5075839;28;20442;-85
2023/08/01 11:03:39;;;;;;;7.67;4.60;;;30.80;47.40;;;;;;5077264;28;20032;-86
2023/08/01 11:06:05;;;;;;;8.77;5.30;;;29.40;49.10;;;;;;5076711;28;20021;-87
2023/08/01 11:08:36;;;;;;;7.65;4.80;;;29.30;50.90;;;;;;5056461;28;20345;-86
2023/08/01 11:11:05;;;;;;;6.70;4.22;;;29.40;51.20;;;;;;5074145;28;20045;-87
2023/08/01 11:13:31;;;;;;;7.28;5.05;;;29.50;50.50;;;;;;5093259;28;20085;-86
2023/08/01 11:15:58;;;;;;;9.25;4.50;;;29.40;49.70;;;;;;5074759;28;20108;-87
2023/08/01 11:18:23;;;;;;;9.48;5.07;;;29.20;50.40;;;;;;5071773;28;20025;-87
2023/08/01 11:20:49;;;;;;;7.07;4.53;;;29.20;50.70;;;;;;5075575;28;20382;-86
2023/08/01 11:23:15;;;;;;;8.63;4.25;;;29.20;50.50;;;;;;5083386;28;20039;-83
2023/08/01 11:25:43;;;;;;;7.68;4.47;;;29.20;50.80;;;;;;5083446;28;20415;-84
2023/08/01 11:28:11;;;;;;;8.07;5.25;;;29.10;50.90;;;;;;5063251;28;20056;-88
2023/08/01 11:30:38;;;;;;;13.18;5.70;;;29.00;51.60;;;;;;5067375;28;20008;-86
2023/08/01 11:33:23;;;;;;;8.00;5.38;;;28.90;52.50;;;;;;5092615;28;20031;-85
2023/08/01 11:35:59;;;;;;;17.13;5.90;;;28.90;52.50;;;;;;5058487;28;20115;-84
2023/08/01 11:38:29;;;;;;;13.48;5.50;;;29.00;53.20;;;;;;5079759;28;20028;-84
2023/08/01 11:40:59;;;;;;;11.48;5.13;;;29.20;53.00;;;;;;5080057;28;20099;-85
2023/08/01 11:43:25;;;;;;;11.50;5.82;;;29.40;52.70;;;;;;5076991;28;20468;-85
2023/08/01 11:45:59;;;;;;;9.30;5.35;;;29.50;52.20;;;;;;5058979;28;20029;-84
2023/08/01 11:48:25;;;;;;;9.23;4.63;;;29.60;52.60;;;;;;5071404;28;20021;-85
2023/08/01 11:51:00;;;;;;;8.60;5.30;;;29.50;52.50;;;;;;5058492;28;20071;-87
2023/08/01 11:53:27;;;;;;;10.60;4.40;;;29.50;51.80;;;;;;5071595;28;20028;-85
2023/08/01 11:55:56;;;;;;;5.15;4.38;;;29.40;52.40;;;;;;5080769;28;20025;-83
2023/08/01 11:58:35;;;;;;;13.98;5.25;;;29.20;52.30;;;;;;5062331;28;20124;-85
2023/08/01 12:01:05;;;;;;;9.52;5.10;;;29.00;52.80;;;;;;5063739;28;20062;-85
2023/08/01 12:03:33;;;;;;;7.15;5.18;;;28.80;52.70;;;;;;5080294;28;20039;-85
2023/08/01 12:06:09;;;;;;;8.25;4.82;;;28.50;53.10;;;;;;5082185;28;20017;-85
2023/08/01 12:08:35;;;;;;;9.40;5.47;;;28.00;53.60;;;;;;5051271;28;20025;-86
2023/08/01 12:11:02;;;;;;;11.57;6.18;;;27.70;54.60;;;;;;5057206;28;20418;-85
2023/08/01 12:13:28;;;;;;;12.45;5.43;;;27.70;55.30;;;;;;5056827;28;20435;-86
2023/08/01 12:15:58;;;;;;;12.32;5.60;;;27.70;55.40;;;;;;5061252;28;20101;-84
2023/08/01 12:18:26;;;;;;;13.35;6.68;;;27.80;55.50;;;;;;5077268;28;20031;-87
2023/08/01 12:20:52;;;;;;;9.43;5.78;;;27.80;55.20;;;;;;5080597;28;20063;-88
2023/08/01 12:23:19;;;;;;;6.03;4.72;;;27.80;55.10;;;;;;5081184;28;20032;-86
2023/08/01 12:25:46;;;;;;;11.25;5.55;;;27.80;55.00;;;;;;5086152;28;20040;-86
2023/08/01 12:28:14;;;;;;;7.95;4.68;;;27.60;54.60;;;;;;5081878;28;20025;-84
2023/08/01 12:30:41;;;;;;;10.27;5.80;;;27.50;55.70;;;;;;5059775;28;20115;-84
2023/08/01 12:33:08;;;;;;;10.63;5.80;;;27.50;55.40;;;;;;5077382;28;20099;-86
2023/08/01 12:35:34;;;;;;;;;;;27.60;55.70;;;;;;5061573;28;20033;-84
2023/08/01 12:38:00;;;;;;;8.33;5.10;;;27.70;55.20;;;;;;5061624;28;19991;-86
2023/08/01 12:40:26;;;;;;;11.48;5.65;;;27.90;56.00;;;;;;5078744;28;20087;-86
2023/08/01 12:42:52;;;;;;;12.20;6.15;;;28.00;55.80;;;;;;5083142;28;20019;-84